Time;durP1;ratioP1;P1;durP2;ratioP2;P2;SDS_P1;SDS_P2;PMS_P1;PMS_P2;Temp;Humidity;BMP_temperature;BMP_pressure;BME280_temperature;BME280_humidity;BME280_pressure;Samples;Min_cycle;Max_cycle;Signal;HPM_P1;HPM_P2
2023/09/05 00:02:06;;;;;;;6.30;5.38;;;15.60;99.90;;;;;;7374806;19;20018;-70
2023/09/05 00:04:32;;;;;;;8.07;5.40;;;15.60;99.90;;;;;;7377462;19;20041;-63
2023/09/05 00:06:58;;;;;;;7.72;5.50;;;15.60;99.90;;;;;;7375005;19;20039;-63
2023/09/05 00:09:44;;;;;;;7.93;5.65;;;15.60;99.90;;;;;;7374471;19;20545;-63
2023/09/05 00:12:10;;;;;;;7.75;5.85;;;15.50;99.90;;;;;;7373827;19;20097;-63
2023/09/05 00:14:37;;;;;;;7.82;5.53;;;15.50;99.90;;;;;;7374355;19;20376;-64
2023/09/05 00:17:06;;;;;;;7.75;6.15;;;15.50;99.90;;;;;;7374967;19;20019;-63
2023/09/05 00:19:55;;;;;;;8.80;5.93;;;15.50;99.90;;;;;;7372814;19;20014;-63
2023/09/05 00:22:23;;;;;;;9.40;6.50;;;15.50;99.90;;;;;;7374729;19;20104;-63
2023/09/05 00:24:49;;;;;;;10.55;6.18;;;15.50;99.90;;;;;;7374850;19;20102;-64
2023/09/05 00:27:15;;;;;;;10.00;6.38;;;15.50;99.90;;;;;;7377135;19;20732;-64
2023/09/05 00:29:42;;;;;;;8.20;5.72;;;15.50;99.90;;;;;;7375329;19;20022;-63
2023/09/05 00:32:09;;;;;;;7.25;6.07;;;15.50;99.90;;;;;;7368974;19;20790;-63
2023/09/05 00:34:37;;;;;;;8.10;6.13;;;15.50;99.90;;;;;;7376230;19;20022;-63
2023/09/05 00:37:08;;;;;;;9.10;6.20;;;15.50;99.90;;;;;;7374796;19;20049;-63
2023/09/05 00:39:55;;;;;;;6.75;5.65;;;15.40;99.90;;;;;;7375316;19;20378;-64
2023/09/05 00:42:21;;;;;;;8.15;6.47;;;15.40;99.90;;;;;;7375544;19;20021;-63
2023/09/05 00:44:48;;;;;;;7.82;6.10;;;15.40;99.90;;;;;;7374567;19;20035;-63
2023/09/05 00:47:15;;;;;;;7.75;6.60;;;15.40;99.90;;;;;;7374459;19;20018;-64
2023/09/05 00:49:47;;;;;;;8.48;6.72;;;15.40;99.90;;;;;;7374929;19;20022;-64
2023/09/05 00:52:19;;;;;;;8.35;7.45;;;15.40;99.90;;;;;;7368827;19;20395;-62
2023/09/05 00:54:45;;;;;;;8.27;6.95;;;15.30;99.90;;;;;;7372030;19;20422;-62
2023/09/05 00:57:17;;;;;;;8.50;6.15;;;15.30;99.90;;;;;;7376200;19;20018;-64
2023/09/05 00:59:44;;;;;;;7.72;6.95;;;15.30;99.90;;;;;;7372460;19;20754;-62
2023/09/05 01:02:10;;;;;;;11.05;7.65;;;15.30;99.90;;;;;;7373370;19;20506;-63
2023/09/05 01:04:44;;;;;;;8.48;7.18;;;15.30;99.90;;;;;;7375399;19;20014;-63
2023/09/05 01:08:04;;;;;;;8.70;7.18;;;15.30;99.90;;;;;;7370463;19;20029;-62
2023/09/05 01:10:48;;;;;;;8.10;7.30;;;15.30;99.90;;;;;;7375090;19;20435;-62
2023/09/05 01:13:24;;;;;;;8.65;7.68;;;15.30;99.90;;;;;;7373180;19;20600;-62
2023/09/05 01:15:53;;;;;;;7.65;6.60;;;15.20;99.90;;;;;;7371831;19;20502;-62
2023/09/05 01:18:23;;;;;;;10.40;7.72;;;15.20;99.90;;;;;;7363290;19;20517;-62
2023/09/05 01:21:17;;;;;;;8.70;7.18;;;15.10;99.90;;;;;;7374495;19;20425;-63
2023/09/05 01:24:11;;;;;;;10.32;8.10;;;15.10;99.90;;;;;;7372769;19;20017;-70
2023/09/05 01:26:39;;;;;;;8.25;7.32;;;15.10;99.90;;;;;;7369137;19;20019;-70
2023/09/05 01:29:06;;;;;;;10.65;8.10;;;15.10;99.90;;;;;;7376925;19;20026;-62
2023/09/05 01:31:33;;;;;;;9.05;8.10;;;15.00;99.90;;;;;;7371242;19;20424;-63
2023/09/05 01:34:00;;;;;;;9.57;8.25;;;15.00;99.90;;;;;;7374064;19;20391;-63
2023/09/05 01:36:46;;;;;;;10.02;7.97;;;15.00;99.90;;;;;;7373538;19;20113;-62
2023/09/05 01:39:12;;;;;;;9.73;7.82;;;15.00;99.90;;;;;;7374701;19;20014;-62
2023/09/05 01:41:38;;;;;;;10.32;8.18;;;14.90;99.90;;;;;;7373410;19;20095;-63
2023/09/05 01:44:05;;;;;;;10.02;8.55;;;14.90;99.90;;;;;;7372321;19;20029;-62
2023/09/05 01:46:31;;;;;;;10.60;9.00;;;14.90;99.90;;;;;;7376959;19;20150;-63
2023/09/05 01:48:57;;;;;;;10.85;8.80;;;14.90;99.90;;;;;;7374821;19;20031;-63
2023/09/05 01:51:23;;;;;;;9.68;8.60;;;14.80;99.90;;;;;;7370622;19;20038;-63
2023/09/05 01:53:50;;;;;;;13.10;8.95;;;14.90;99.90;;;;;;7373256;19;21055;-63
2023/09/05 01:56:16;;;;;;;12.02;9.18;;;14.90;99.90;;;;;;7373478;19;20085;-63
2023/09/05 01:59:02;;;;;;;11.73;9.82;;;14.80;99.90;;;;;;7372499;19;20015;-70
2023/09/05 02:01:28;;;;;;;9.45;8.55;;;14.80;99.90;;;;;;7374445;19;20506;-70
2023/09/05 02:03:57;;;;;;;10.68;9.63;;;14.80;99.90;;;;;;7371741;19;20280;-69
2023/09/05 02:06:25;;;;;;;11.50;10.30;;;14.80;99.90;;;;;;7373027;19;20082;-70
2023/09/05 02:08:51;;;;;;;11.43;10.07;;;14.80;99.90;;;;;;7370922;19;20025;-70
2023/09/05 02:11:37;;;;;;;12.23;10.20;;;14.80;99.90;;;;;;7371203;19;20018;-70
2023/09/05 02:14:04;;;;;;;11.73;10.63;;;14.70;99.90;;;;;;7373696;19;20403;-70
2023/09/05 02:16:31;;;;;;;11.68;10.48;;;14.80;99.90;;;;;;7375011;19;20017;-70
2023/09/05 02:18:58;;;;;;;10.63;9.52;;;14.70;99.90;;;;;;7371284;19;20505;-70
2023/09/05 02:21:25;;;;;;;13.38;10.93;;;14.70;99.90;;;;;;7372103;19;20422;-70
2023/09/05 02:23:51;;;;;;;12.10;10.55;;;14.70;99.90;;;;;;7369592;19;20018;-70
2023/09/05 02:26:17;;;;;;;11.80;10.60;;;14.60;99.90;;;;;;7370001;19;20041;-68
2023/09/05 02:28:44;;;;;;;12.60;11.25;;;14.60;99.90;;;;;;7369975;19;20490;-70
2023/09/05 02:31:11;;;;;;;12.60;11.35;;;14.50;99.90;;;;;;7369115;19;20022;-69
2023/09/05 02:33:37;;;;;;;16.05;11.57;;;14.60;99.90;;;;;;7369560;19;20014;-71
2023/09/05 02:36:08;;;;;;;12.52;11.30;;;14.50;99.90;;;;;;7369060;19;20482;-69
2023/09/05 02:38:36;;;;;;;12.60;11.27;;;14.50;99.90;;;;;;7371836;19;20018;-69
2023/09/05 02:41:02;;;;;;;12.30;11.10;;;14.50;99.90;;;;;;7373278;19;20019;-70
2023/09/05 02:43:32;;;;;;;13.25;11.95;;;14.50;99.90;;;;;;7370796;19;20470;-69
2023/09/05 02:45:58;;;;;;;12.35;11.15;;;14.50;99.90;;;;;;7372256;19;20497;-69
2023/09/05 02:48:24;;;;;;;12.90;11.20;;;14.50;99.90;;;;;;7375437;19;20036;-69
2023/09/05 02:51:02;;;;;;;14.05;10.82;;;14.50;99.90;;;;;;7372962;19;20029;-69
2023/09/05 02:53:29;;;;;;;13.27;11.98;;;14.50;99.90;;;;;;7368250;19;20054;-70
2023/09/05 02:55:55;;;;;;;14.35;10.82;;;14.40;99.90;;;;;;7370672;19;20046;-69
2023/09/05 02:58:42;;;;;;;11.77;10.57;;;14.50;99.90;;;;;;7370696;19;20710;-70
2023/09/05 03:01:12;;;;;;;12.95;11.73;;;14.40;99.90;;;;;;7374759;19;20014;-70
2023/09/05 03:03:38;;;;;;;13.32;11.98;;;14.40;99.90;;;;;;7371851;19;20029;-70
2023/09/05 03:06:24;;;;;;;12.65;11.35;;;14.50;99.90;;;;;;7371545;19;20018;-70
2023/09/05 03:09:15;;;;;;;12.82;11.27;;;14.40;99.90;;;;;;7369502;19;20017;-70
2023/09/05 03:11:42;;;;;;;12.60;11.30;;;14.40;99.90;;;;;;7368053;19;20514;-70
2023/09/05 03:14:08;;;;;;;13.23;11.93;;;14.40;99.90;;;;;;7369803;19;20042;-70
2023/09/05 03:16:54;;;;;;;12.55;11.35;;;14.40;99.90;;;;;;7367622;19;20031;-70
2023/09/05 03:19:22;;;;;;;13.23;11.93;;;14.40;99.90;;;;;;7366531;19;20010;-69
2023/09/05 03:21:49;;;;;;;12.98;11.30;;;14.40;99.90;;;;;;7363995;19;20405;-70
2023/09/05 03:24:17;;;;;;;13.32;12.07;;;14.40;99.90;;;;;;7366805;19;20018;-70
2023/09/05 03:26:48;;;;;;;13.43;10.73;;;14.40;99.90;;;;;;7363935;19;20525;-71
2023/09/05 03:29:15;;;;;;;12.53;11.23;;;14.40;99.90;;;;;;7365795;19;20633;-70
2023/09/05 03:31:42;;;;;;;13.60;11.27;;;14.40;99.90;;;;;;7368830;19;20273;-70
2023/09/05 03:34:32;;;;;;;13.05;11.75;;;14.30;99.90;;;;;;7371387;19;20022;-63
2023/09/05 03:36:59;;;;;;;13.50;12.10;;;14.30;99.90;;;;;;7370738;19;20486;-61
2023/09/05 03:39:25;;;;;;;12.82;11.52;;;14.30;99.90;;;;;;7374811;19;20022;-62
2023/09/05 03:41:51;;;;;;;15.00;11.80;;;14.30;99.90;;;;;;7371565;19;20014;-63
2023/09/05 03:44:18;;;;;;;14.43;11.40;;;14.30;99.90;;;;;;7372453;19;20042;-62
2023/09/05 03:46:44;;;;;;;13.25;11.93;;;14.30;99.90;;;;;;7371842;19;20019;-63
2023/09/05 03:49:30;;;;;;;12.98;11.52;;;14.30;99.90;;;;;;7370843;19;20019;-63
2023/09/05 03:51:57;;;;;;;13.10;11.80;;;14.30;99.90;;;;;;7375091;19;20010;-64
2023/09/05 03:54:24;;;;;;;12.55;11.23;;;14.20;99.90;;;;;;7373583;19;20024;-63
2023/09/05 03:56:51;;;;;;;14.70;11.63;;;14.20;99.90;;;;;;7374650;19;20454;-62
2023/09/05 03:59:17;;;;;;;13.00;11.68;;;14.20;99.90;;;;;;7375394;19;20031;-71
2023/09/05 04:01:43;;;;;;;13.82;11.98;;;14.20;99.90;;;;;;7374033;19;20015;-70
2023/09/05 04:04:10;;;;;;;13.57;12.18;;;14.10;99.90;;;;;;7369480;19;20026;-63
2023/09/05 04:06:37;;;;;;;13.30;11.10;;;14.20;99.90;;;;;;7371798;19;20028;-62
2023/09/05 04:09:03;;;;;;;13.10;11.80;;;14.10;99.90;;;;;;7372911;19;20015;-69
2023/09/05 04:11:30;;;;;;;13.25;11.85;;;14.10;99.90;;;;;;7372139;19;20030;-70
2023/09/05 04:13:58;;;;;;;13.70;12.40;;;14.10;99.90;;;;;;7367255;19;20774;-69
2023/09/05 04:16:24;;;;;;;13.20;11.90;;;14.10;99.90;;;;;;7371780;19;20011;-70
2023/09/05 04:18:50;;;;;;;14.30;12.63;;;14.00;99.90;;;;;;7368714;19;20454;-70
2023/09/05 04:21:17;;;;;;;12.65;11.38;;;14.00;99.90;;;;;;7371129;19;20022;-70
2023/09/05 04:23:44;;;;;;;16.70;13.05;;;14.00;99.90;;;;;;7369000;19;20014;-70
2023/09/05 04:26:11;;;;;;;13.65;12.35;;;14.00;99.90;;;;;;7369869;19;20047;-70
2023/09/05 04:28:58;;;;;;;13.05;11.85;;;14.00;99.90;;;;;;7370249;19;20641;-70
2023/09/05 04:31:24;;;;;;;13.40;11.68;;;14.00;99.90;;;;;;7370101;19;20130;-70
2023/09/05 04:33:51;;;;;;;14.15;12.85;;;14.00;99.90;;;;;;7367162;19;20454;-70
2023/09/05 04:36:17;;;;;;;12.75;11.48;;;13.90;99.90;;;;;;7368360;19;20386;-69
2023/09/05 04:38:44;;;;;;;13.68;12.38;;;13.90;99.90;;;;;;7366744;19;20351;-70
2023/09/05 04:41:11;;;;;;;13.75;12.35;;;13.90;99.90;;;;;;7374062;19;20037;-64
2023/09/05 04:43:57;;;;;;;13.75;12.38;;;13.90;99.90;;;;;;7372116;19;20089;-63
2023/09/05 04:46:23;;;;;;;14.02;12.63;;;13.90;99.90;;;;;;7371549;19;20043;-63
2023/09/05 04:48:50;;;;;;;14.63;13.23;;;13.90;99.90;;;;;;7373315;19;20085;-63
2023/09/05 04:51:16;;;;;;;14.15;12.57;;;13.90;99.90;;;;;;7371034;19;20843;-61
2023/09/05 04:53:43;;;;;;;13.73;12.15;;;13.90;99.90;;;;;;7373017;19;20015;-59
2023/09/05 04:56:09;;;;;;;14.63;13.23;;;13.90;99.90;;;;;;7369321;19;20107;-61
2023/09/05 04:58:35;;;;;;;14.00;12.68;;;13.90;99.90;;;;;;7370845;19;21320;-58
2023/09/05 05:01:02;;;;;;;15.07;12.15;;;13.90;99.90;;;;;;7368689;19;20019;-58
2023/09/05 05:03:30;;;;;;;14.30;12.80;;;13.90;99.90;;;;;;7371585;19;20023;-58
2023/09/05 05:05:56;;;;;;;15.23;13.65;;;13.90;99.90;;;;;;7363180;19;20029;-59
2023/09/05 05:08:22;;;;;;;14.65;13.10;;;13.90;99.90;;;;;;7374659;19;20018;-59
2023/09/05 05:11:08;;;;;;;14.32;12.80;;;13.90;99.90;;;;;;7368499;19;20110;-59
2023/09/05 05:13:34;;;;;;;15.73;14.13;;;13.90;99.90;;;;;;7372442;19;20026;-61
2023/09/05 05:16:00;;;;;;;14.27;12.88;;;13.90;99.90;;;;;;7367557;19;20090;-60
2023/09/05 05:18:47;;;;;;;15.07;13.43;;;13.90;99.90;;;;;;7364152;19;20023;-59
2023/09/05 05:21:13;;;;;;;15.90;13.05;;;13.90;99.90;;;;;;7370638;19;20028;-59
2023/09/05 05:24:00;;;;;;;14.90;13.20;;;13.90;99.90;;;;;;7366941;19;20382;-58
2023/09/05 05:26:46;;;;;;;15.18;13.68;;;13.90;99.90;;;;;;7367808;19;20461;-58
2023/09/05 05:29:33;;;;;;;17.58;14.10;;;14.00;99.90;;;;;;7370590;19;20049;-59
2023/09/05 05:32:02;;;;;;;15.90;13.32;;;14.00;99.90;;;;;;7368995;19;20019;-66
2023/09/05 05:34:30;;;;;;;15.98;14.48;;;14.00;99.90;;;;;;7369619;19;20050;-66
2023/09/05 05:36:56;;;;;;;16.30;14.38;;;14.00;99.90;;;;;;7371062;19;20489;-66
2023/09/05 05:39:25;;;;;;;15.80;14.23;;;14.00;99.90;;;;;;7367367;19;20037;-66
2023/09/05 05:42:11;;;;;;;14.40;13.00;;;14.10;99.90;;;;;;7372543;19;20501;-62
2023/09/05 05:44:38;;;;;;;13.88;12.60;;;14.20;99.90;;;;;;7365024;19;20048;-63
2023/09/05 05:47:04;;;;;;;13.60;12.23;;;14.40;99.90;;;;;;7370317;19;20022;-66
2023/09/05 05:49:31;;;;;;;14.05;12.55;;;14.50;99.90;;;;;;7366932;19;20022;-67
2023/09/05 05:51:58;;;;;;;13.88;12.05;;;14.50;99.90;;;;;;7367025;19;20014;-66
2023/09/05 05:54:25;;;;;;;13.48;12.18;;;14.60;99.90;;;;;;7367732;19;20022;-66
2023/09/05 05:56:53;;;;;;;25.40;22.60;;;14.80;99.90;;;;;;7368461;19;20022;-62
2023/09/05 05:59:19;;;;;;;13.80;11.88;;;14.90;99.90;;;;;;7366808;19;20014;-61
2023/09/05 06:01:45;;;;;;;12.27;10.93;;;15.10;99.90;;;;;;7372738;19;21290;-59
2023/09/05 06:04:13;;;;;;;12.73;10.52;;;15.20;99.90;;;;;;7364361;19;20019;-60
2023/09/05 06:06:40;;;;;;;11.57;10.38;;;15.30;99.90;;;;;;7368675;19;20068;-69
2023/09/05 06:09:06;;;;;;;12.23;9.45;;;15.50;99.90;;;;;;7369186;19;20029;-69
2023/09/05 06:11:33;;;;;;;12.13;9.68;;;15.70;99.90;;;;;;7366272;19;20908;-70
2023/09/05 06:14:19;;;;;;;12.32;9.15;;;15.90;99.90;;;;;;7370498;19;20010;-70
2023/09/05 06:16:46;;;;;;;13.27;8.65;;;16.10;99.90;;;;;;7367554;19;20025;-69
2023/09/05 06:19:14;;;;;;;10.10;8.93;;;16.30;99.90;;;;;;7372649;19;20473;-70
2023/09/05 06:21:49;;;;;;;10.07;7.63;;;16.50;99.90;;;;;;7371975;19;20489;-70
2023/09/05 06:24:18;;;;;;;9.43;7.53;;;16.80;99.90;;;;;;7374227;19;20022;-69
2023/09/05 06:26:45;;;;;;;8.65;7.60;;;17.00;99.90;;;;;;7368223;19;20011;-70
2023/09/05 06:29:31;;;;;;;11.32;8.07;;;17.10;99.90;;;;;;7369752;19;20014;-69
2023/09/05 06:31:57;;;;;;;8.93;6.93;;;17.30;99.90;;;;;;7371234;19;20026;-69
2023/09/05 06:34:23;;;;;;;8.88;7.13;;;17.50;99.90;;;;;;7369565;19;20028;-69
2023/09/05 06:36:51;;;;;;;9.23;7.50;;;17.60;99.90;;;;;;7370371;19;20504;-69
2023/09/05 06:39:17;;;;;;;8.35;7.40;;;17.70;99.90;;;;;;7367232;19;20490;-69
2023/09/05 06:41:43;;;;;;;7.78;6.65;;;18.00;99.90;;;;;;7370495;19;20025;-70
2023/09/05 06:44:10;;;;;;;11.52;6.78;;;18.20;99.90;;;;;;7369352;19;20025;-61
2023/09/05 06:46:36;;;;;;;7.85;7.05;;;18.50;99.90;;;;;;7372116;19;20022;-70
2023/09/05 06:49:03;;;;;;;7.72;6.22;;;18.70;99.90;;;;;;7365701;19;20014;-60
2023/09/05 06:51:30;;;;;;;7.50;6.70;;;19.00;99.90;;;;;;7370951;19;20014;-69
2023/09/05 06:53:58;;;;;;;8.73;6.50;;;19.10;99.90;;;;;;7367797;19;20556;-60
2023/09/05 06:56:25;;;;;;;8.07;6.45;;;19.30;99.90;;;;;;7369352;19;20014;-59
2023/09/05 06:58:52;;;;;;;7.72;6.20;;;19.60;99.90;;;;;;7367011;19;20018;-59
2023/09/05 07:01:18;;;;;;;7.63;6.65;;;19.80;99.90;;;;;;7370419;19;20010;-59
2023/09/05 07:03:45;;;;;;;7.47;6.40;;;20.20;99.90;;;;;;7368883;19;20011;-60
2023/09/05 07:06:12;;;;;;;7.22;5.97;;;20.50;99.90;;;;;;7371721;19;20018;-60
2023/09/05 07:08:38;;;;;;;7.13;5.63;;;20.70;99.90;;;;;;7365520;19;20029;-60
2023/09/05 07:11:04;;;;;;;7.82;5.70;;;21.10;99.90;;;;;;7368967;19;20473;-60
2023/09/05 07:13:31;;;;;;;5.50;4.90;;;21.40;99.90;;;;;;7366810;19;20022;-60
2023/09/05 07:15:57;;;;;;;6.25;5.30;;;21.60;99.90;;;;;;7369809;19;20050;-60
2023/09/05 07:18:24;;;;;;;6.60;4.93;;;21.90;99.90;;;;;;7366681;19;20014;-60
2023/09/05 07:20:51;;;;;;;8.45;5.35;;;22.20;99.90;;;;;;7368004;19;20618;-59
2023/09/05 07:23:17;;;;;;;7.18;4.60;;;22.60;99.90;;;;;;7368768;19;21113;-60
2023/09/05 07:26:05;;;;;;;7.05;4.40;;;22.80;99.90;;;;;;7367844;19;20018;-60
2023/09/05 07:28:32;;;;;;;6.25;4.63;;;23.00;99.90;;;;;;7366902;19;20010;-60
2023/09/05 07:30:58;;;;;;;5.88;4.60;;;23.50;99.90;;;;;;7367673;19;20025;-60
2023/09/05 07:33:24;;;;;;;5.68;4.30;;;24.00;99.90;;;;;;7370466;19;20482;-60
2023/09/05 07:35:50;;;;;;;5.85;4.18;;;24.40;99.90;;;;;;7368806;19;20583;-60
2023/09/05 07:38:20;;;;;;;11.77;4.22;;;24.70;99.90;;;;;;7364576;19;20378;-61
2023/09/05 07:40:48;;;;;;;6.33;3.90;;;24.80;99.90;;;;;;7365634;19;20557;-60
2023/09/05 07:43:14;;;;;;;9.05;3.78;;;24.90;99.90;;;;;;7364992;19;20505;-59
2023/09/05 07:45:41;;;;;;;5.50;3.53;;;25.40;99.90;;;;;;7369429;19;20022;-60
2023/09/05 07:48:08;;;;;;;5.35;3.70;;;25.60;99.90;;;;;;7365985;19;20007;-61
2023/09/05 07:50:35;;;;;;;5.95;3.90;;;25.90;99.90;;;;;;7368264;19;20018;-60
2023/09/05 07:53:01;;;;;;;5.03;3.17;;;25.90;99.90;;;;;;7364189;19;20010;-68
2023/09/05 07:55:27;;;;;;;4.75;3.22;;;26.10;99.90;;;;;;7368288;19;20533;-60
2023/09/05 07:57:55;;;;;;;4.63;3.10;;;26.10;99.90;;;;;;7362337;19;20702;-69
2023/09/05 08:00:21;;;;;;;4.60;3.42;;;26.20;99.90;;;;;;7369658;19;20489;-60
2023/09/05 08:02:47;;;;;;;5.65;3.40;;;26.60;99.90;;;;;;7365034;19;20839;-60
2023/09/05 08:05:14;;;;;;;7.35;3.05;;;26.50;99.90;;;;;;7367188;19;20022;-61
2023/09/05 08:08:00;;;;;;;5.13;3.40;;;26.80;99.90;;;;;;7364675;19;20508;-60
2023/09/05 08:10:26;;;;;;;4.90;3.05;;;27.40;99.90;;;;;;7370588;19;20014;-58
2023/09/05 08:13:16;;;;;;;6.20;3.25;;;27.50;99.90;;;;;;7367022;19;20410;-70
2023/09/05 08:15:44;;;;;;;5.80;3.25;;;27.90;99.90;;;;;;7367561;19;20019;-70
2023/09/05 08:18:12;;;;;;;6.30;2.90;;;28.20;99.90;;;;;;7372374;19;20400;-70
2023/09/05 08:20:39;;;;;;;4.60;2.53;;;28.50;99.90;;;;;;7369763;19;20569;-70
2023/09/05 08:23:06;;;;;;;3.65;2.55;;;28.60;99.00;;;;;;7376564;19;20053;-70
2023/09/05 08:25:32;;;;;;;2.97;2.20;;;28.60;96.90;;;;;;7372701;19;20102;-60
2023/09/05 08:28:00;;;;;;;5.07;2.65;;;28.50;93.40;;;;;;7375410;19;20023;-61
2023/09/05 08:30:28;;;;;;;6.32;2.60;;;28.50;92.10;;;;;;7371508;19;20706;-60
2023/09/05 08:33:14;;;;;;;5.15;2.67;;;28.70;92.10;;;;;;7375020;19;20082;-58
2023/09/05 08:35:41;;;;;;;4.97;2.65;;;29.10;91.80;;;;;;7375766;19;20033;-58
2023/09/05 08:38:07;;;;;;;5.97;2.33;;;29.30;90.80;;;;;;7373036;19;20501;-59
2023/09/05 08:40:34;;;;;;;5.53;2.50;;;29.40;92.00;;;;;;7370503;19;20470;-59
2023/09/05 08:43:01;;;;;;;3.92;2.00;;;29.50;89.50;;;;;;7375685;19;20298;-59
2023/09/05 08:45:30;;;;;;;6.32;1.95;;;29.70;87.30;;;;;;7373903;19;20365;-59
2023/09/05 08:48:16;;;;;;;3.25;1.60;;;29.80;80.20;;;;;;7374350;19;20073;-70
2023/09/05 08:50:42;;;;;;;3.22;1.70;;;30.40;79.60;;;;;;7375912;19;20019;-69
2023/09/05 08:53:14;;;;;;;6.63;3.45;;;30.40;77.30;;;;;;7374378;19;20026;-69
2023/09/05 08:55:45;;;;;;;3.20;1.90;;;30.70;77.50;;;;;;7372641;19;20449;-69
2023/09/05 08:58:14;;;;;;;5.78;2.08;;;30.90;73.30;;;;;;7372131;19;20019;-69
2023/09/05 09:01:00;;;;;;;3.38;1.80;;;30.90;72.80;;;;;;7372067;19;20030;-68
2023/09/05 09:03:26;;;;;;;6.32;2.72;;;31.20;74.30;;;;;;7372816;19;20346;-69
2023/09/05 09:05:53;;;;;;;3.53;1.80;;;31.20;70.70;;;;;;7373666;19;20026;-68
2023/09/05 09:08:43;;;;;;;5.55;2.15;;;31.20;70.00;;;;;;7368919;19;20015;-68
2023/09/05 09:11:30;;;;;;;3.20;2.03;;;31.50;68.00;;;;;;7371175;19;20335;-68
2023/09/05 09:14:00;;;;;;;3.80;1.60;;;31.80;67.00;;;;;;7371147;19;20483;-69
2023/09/05 09:16:26;;;;;;;2.97;1.67;;;32.00;64.10;;;;;;7371514;19;20078;-69
2023/09/05 09:19:03;;;;;;;3.22;1.58;;;32.20;60.80;;;;;;7373387;19;20368;-69
2023/09/05 09:21:31;;;;;;;2.40;1.48;;;32.50;57.60;;;;;;7370230;19;20509;-69
2023/09/05 09:24:07;;;;;;;5.10;1.80;;;32.10;59.20;;;;;;7372286;19;20505;-69
2023/09/05 09:26:33;;;;;;;4.03;2.15;;;32.50;57.20;;;;;;7371805;19;20010;-69
2023/09/05 09:29:02;;;;;;;3.78;2.28;;;32.60;56.80;;;;;;7371702;19;20022;-69
2023/09/05 09:31:48;;;;;;;3.97;1.70;;;32.40;59.10;;;;;;7367915;19;20383;-69
2023/09/05 09:34:19;;;;;;;4.32;3.55;;;32.80;57.50;;;;;;7373397;19;20814;-70
2023/09/05 09:36:50;;;;;;;;;;;32.90;57.70;;;;;;7369007;19;20464;-70
2023/09/05 09:39:17;;;;;;;2.42;1.48;;;32.60;58.20;;;;;;7374180;19;20320;-68
2023/09/05 09:41:45;;;;;;;2.55;1.77;;;32.70;57.00;;;;;;7371605;19;20466;-70
2023/09/05 09:44:25;;;;;;;4.38;2.88;;;33.20;57.60;;;;;;7374164;19;20077;-69
2023/09/05 09:46:56;;;;;;;3.28;1.38;;;33.40;55.10;;;;;;7373621;19;20502;-69
2023/09/05 09:49:28;;;;;;;2.97;1.63;;;33.60;55.60;;;;;;7371786;19;20046;-69
2023/09/05 09:51:57;;;;;;;5.68;1.63;;;33.70;54.90;;;;;;7374461;19;20450;-68
2023/09/05 09:54:31;;;;;;;2.78;1.40;;;33.80;53.80;;;;;;7370552;19;20041;-69
2023/09/05 09:57:06;;;;;;;3.13;1.70;;;33.80;52.90;;;;;;7374261;19;20468;-69
2023/09/05 09:59:36;;;;;;;4.95;2.38;;;34.00;53.20;;;;;;7373008;19;20010;-69
2023/09/05 10:02:11;;;;;;;3.03;1.38;;;34.20;52.60;;;;;;7372736;19;20053;-69
2023/09/05 10:04:57;;;;;;;3.15;1.70;;;33.70;52.80;;;;;;7368328;19;20042;-69
2023/09/05 10:07:25;;;;;;;2.00;1.63;;;34.70;52.70;;;;;;7366927;19;20018;-69
2023/09/05 10:09:52;;;;;;;3.30;1.42;;;34.50;51.70;;;;;;7369745;19;20093;-69
2023/09/05 10:12:20;;;;;;;3.47;1.35;;;34.30;51.70;;;;;;7365247;19;20438;-69
2023/09/05 10:14:48;;;;;;;2.85;1.73;;;34.20;50.90;;;;;;7368372;19;20466;-68
2023/09/05 10:17:15;;;;;;;4.45;1.88;;;34.40;51.20;;;;;;7367705;19;20093;-69
2023/09/05 10:19:44;;;;;;;2.47;1.58;;;34.50;51.00;;;;;;7371544;19;20018;-69
2023/09/05 10:22:32;;;;;;;4.22;1.52;;;34.20;49.20;;;;;;7367736;19;20097;-68
2023/09/05 10:25:00;;;;;;;2.83;1.60;;;34.50;50.10;;;;;;7367898;19;20014;-69
2023/09/05 10:27:26;;;;;;;2.08;1.23;;;34.50;49.10;;;;;;7368974;19;20014;-69
2023/09/05 10:29:53;;;;;;;3.60;1.95;;;34.60;50.00;;;;;;7365265;19;20033;-69
2023/09/05 10:32:23;;;;;;;3.95;1.92;;;35.20;50.10;;;;;;7366651;19;20018;-68
2023/09/05 10:34:58;;;;;;;2.42;1.40;;;35.20;50.00;;;;;;7364743;19;20014;-69
2023/09/05 10:37:34;;;;;;;2.45;1.33;;;35.40;49.80;;;;;;7368832;19;20028;-69
2023/09/05 10:40:09;;;;;;;1.83;1.17;;;35.40;50.20;;;;;;7367695;19;20018;-69
2023/09/05 10:42:49;;;;;;;2.97;1.40;;;35.40;48.80;;;;;;7365288;19;20477;-69
2023/09/05 10:45:21;;;;;;;4.32;1.67;;;35.30;49.00;;;;;;7370480;19;20022;-69
2023/09/05 10:47:49;;;;;;;4.57;1.55;;;35.10;48.80;;;;;;7367715;19;20014;-69
2023/09/05 10:50:19;;;;;;;1.98;1.38;;;35.10;48.60;;;;;;7370091;19;20492;-69
2023/09/05 10:53:11;;;;;;;2.35;1.73;;;35.60;49.50;;;;;;7365622;19;20211;-69
2023/09/05 10:55:46;;;;;;;2.88;1.73;;;36.10;48.80;;;;;;7365897;19;20053;-70
2023/09/05 10:58:47;;;;;;;1.77;1.15;;;35.90;48.50;;;;;;7364001;19;20049;-69
2023/09/05 11:01:39;;;;;;;5.57;3.05;;;36.20;48.30;;;;;;7364613;19;20052;-66
2023/09/05 11:04:16;;;;;;;15.05;13.63;;;36.30;43.10;;;;;;7361202;19;20033;-71
2023/09/05 11:06:54;;;;;;;5.18;4.55;;;36.60;45.20;;;;;;7222576;19;2854925;-78
2023/09/05 11:09:20;;;;;;;12.95;11.00;;;36.80;44.10;;;;;;7365290;19;20380;-67
2023/09/05 11:11:47;;;;;;;6.90;6.15;;;36.70;45.40;;;;;;7365355;19;20018;-73
2023/09/05 11:14:13;;;;;;;10.75;9.68;;;37.00;46.10;;;;;;7365769;19;20018;-72
2023/09/05 11:16:49;;;;;;;4.55;2.50;;;37.00;45.80;;;;;;7366883;19;20026;-66
2023/09/05 11:19:50;;;;;;;3.58;1.50;;;36.90;44.30;;;;;;7367436;19;20611;-63
2023/09/05 11:22:25;;;;;;;5.55;3.03;;;36.90;44.40;;;;;;7361778;19;20015;-63
2023/09/05 11:24:58;;;;;;;2.00;1.23;;;36.90;44.60;;;;;;7365255;19;20930;-63
2023/09/05 11:27:32;;;;;;;3.47;2.88;;;37.00;44.00;;;;;;7367208;19;20445;-64
2023/09/05 11:30:02;;;;;;;11.88;10.73;;;37.00;42.80;;;;;;7368420;19;20045;-62
2023/09/05 11:32:34;;;;;;;6.82;2.75;;;36.70;43.90;;;;;;7370802;19;20074;-63
2023/09/05 11:35:20;;;;;;;3.63;2.42;;;37.20;44.00;;;;;;7366712;19;20052;-63
2023/09/05 11:37:57;;;;;;;10.48;9.38;;;37.60;44.00;;;;;;7368060;19;20509;-63
2023/09/05 11:40:25;;;;;;;4.53;3.30;;;37.40;44.30;;;;;;7367546;19;20026;-63
2023/09/05 11:43:08;;;;;;;5.55;4.47;;;37.50;42.10;;;;;;7372291;19;20518;-66
2023/09/05 11:45:35;;;;;;;3.90;3.17;;;37.20;41.80;;;;;;7372198;19;20014;-66
2023/09/05 11:48:04;;;;;;;4.07;3.65;;;36.90;41.70;;;;;;7371592;19;20021;-65
2023/09/05 11:50:52;;;;;;;4.65;4.15;;;36.70;41.70;;;;;;7363461;19;20022;-67
2023/09/05 11:53:19;;;;;;;5.03;4.18;;;36.80;42.80;;;;;;7368521;19;20035;-70
2023/09/05 11:55:47;;;;;;;7.93;7.20;;;36.70;43.20;;;;;;7370274;19;20026;-69
2023/09/05 11:58:16;;;;;;;8.35;7.50;;;37.10;43.10;;;;;;7369810;19;20564;-70
2023/09/05 12:00:44;;;;;;;9.43;8.47;;;37.30;44.00;;;;;;7369834;19;20102;-66
2023/09/05 12:03:15;;;;;;;4.63;2.88;;;37.60;44.10;;;;;;7367273;19;20274;-70
2023/09/05 12:06:02;;;;;;;3.55;2.05;;;37.40;43.20;;;;;;7368830;19;20019;-68
2023/09/05 12:08:34;;;;;;;3.90;2.42;;;37.60;43.50;;;;;;7371697;19;20035;-64
2023/09/05 12:11:25;;;;;;;3.28;1.40;;;37.60;43.40;;;;;;7367707;19;20030;-67
2023/09/05 12:13:56;;;;;;;7.57;3.55;;;37.40;43.00;;;;;;7375857;19;20093;-67
2023/09/05 12:16:22;;;;;;;4.85;1.80;;;37.60;43.80;;;;;;7369587;19;20497;-67
2023/09/05 12:18:56;;;;;;;2.53;1.70;;;37.80;44.60;;;;;;7373313;19;20480;-67
2023/09/05 12:21:23;;;;;;;2.78;1.20;;;37.80;43.90;;;;;;7375756;19;20038;-67
2023/09/05 12:23:49;;;;;;;1.25;0.95;;;37.70;42.60;;;;;;7371306;19;20014;-66
2023/09/05 12:26:15;;;;;;;4.28;1.30;;;37.70;42.30;;;;;;7373321;19;20015;-66
2023/09/05 12:28:53;;;;;;;1.92;1.00;;;37.60;44.00;;;;;;7372479;19;20470;-66
2023/09/05 12:31:23;;;;;;;2.70;1.08;;;37.50;41.60;;;;;;7372221;19;20025;-67
2023/09/05 12:33:49;;;;;;;2.63;1.02;;;37.40;42.00;;;;;;7370842;19;20577;-67
2023/09/05 12:36:15;;;;;;;2.30;1.45;;;37.80;42.90;;;;;;7368572;19;20033;-68
2023/09/05 12:39:02;;;;;;;2.85;1.23;;;37.90;42.00;;;;;;7367062;19;20018;-68
2023/09/05 12:41:28;;;;;;;2.40;1.00;;;37.70;41.80;;;;;;7370120;19;20018;-62
2023/09/05 12:43:55;;;;;;;7.53;6.80;;;37.90;41.80;;;;;;7368900;19;20111;-62
2023/09/05 12:46:21;;;;;;;2.17;1.33;;;37.90;41.40;;;;;;7366479;19;20015;-63
2023/09/05 12:48:48;;;;;;;3.00;1.20;;;37.70;41.70;;;;;;7368966;19;20390;-62
2023/09/05 12:51:17;;;;;;;2.05;1.20;;;37.90;41.20;;;;;;7368922;19;20022;-62
2023/09/05 12:53:44;;;;;;;2.53;1.13;;;38.10;41.80;;;;;;7370636;19;20018;-62
2023/09/05 12:56:11;;;;;;;3.90;1.63;;;38.00;41.60;;;;;;7366384;19;20082;-62
2023/09/05 12:58:37;;;;;;;2.28;1.10;;;38.20;41.90;;;;;;7367731;19;20034;-62
2023/09/05 13:01:24;;;;;;;2.30;1.30;;;38.50;42.00;;;;;;7370798;19;20414;-62